createdAt,value
2019-01-14T00:01:06.639Z,7.64
2019-01-14T00:03:34.288Z,7.66
2019-01-14T00:06:10.086Z,7.56
2019-01-14T00:08:34.089Z,7.53
2019-01-14T00:11:02.433Z,7.49
2019-01-14T00:13:30.388Z,7.42
2019-01-14T00:15:59.263Z,7.54
2019-01-14T00:18:27.325Z,7.54
2019-01-14T00:20:58.358Z,7.56
2019-01-14T00:23:26.216Z,7.56
2019-01-14T00:25:54.067Z,7.56
2019-01-14T00:28:24.674Z,7.48
2019-01-14T00:30:52.363Z,7.48
2019-01-14T00:33:20.066Z,7.50
2019-01-14T00:35:48.841Z,7.44
2019-01-14T00:38:19.596Z,7.37
2019-01-14T00:40:47.250Z,7.32
2019-01-14T00:43:14.937Z,7.35
2019-01-14T00:45:42.655Z,7.37
2019-01-14T00:48:13.426Z,7.43
2019-01-14T00:50:41.207Z,7.36
2019-01-14T00:53:09.011Z,7.36
2019-01-14T00:55:37.218Z,7.44
2019-01-14T00:58:07.958Z,7.44
2019-01-14T01:00:35.854Z,7.54
2019-01-14T01:03:06.181Z,7.54
2019-01-14T01:05:35.205Z,7.56
2019-01-14T01:08:03.013Z,7.20
2019-01-14T01:10:30.934Z,7.20
2019-01-14T01:12:58.519Z,7.05
2019-01-14T01:15:26.569Z,7.05
2019-01-14T01:17:54.945Z,6.73
2019-01-14T01:20:23.094Z,6.62
2019-01-14T01:22:50.995Z,6.62
2019-01-14T01:25:20.977Z,6.57
2019-01-14T01:27:48.979Z,6.12
2019-01-14T01:30:17.980Z,6.12
2019-01-14T01:32:46.371Z,5.31
2019-01-14T01:35:14.947Z,5.62
2019-01-14T01:37:42.799Z,5.55
2019-01-14T01:40:20.773Z,5.50
2019-01-14T01:42:51.427Z,5.41
2019-01-14T01:45:22.227Z,4.91
2019-01-14T01:47:50.275Z,4.92
2019-01-14T01:50:19.156Z,5.41
2019-01-14T01:52:47.266Z,5.31
2019-01-14T01:55:15.102Z,5.32
2019-01-14T01:57:43.431Z,5.43
2019-01-14T02:00:16.472Z,5.49
2019-01-14T02:02:44.300Z,5.58
2019-01-14T02:05:12.458Z,5.53
2019-01-14T02:07:40.545Z,5.44
2019-01-14T02:10:12.374Z,5.47
2019-01-14T02:12:40.013Z,5.48
2019-01-14T02:15:09.330Z,5.49
2019-01-14T02:17:37.204Z,5.45
2019-01-14T02:20:05.778Z,5.50
2019-01-14T02:22:35.587Z,5.49
2019-01-14T02:25:03.901Z,5.49
2019-01-14T02:27:31.666Z,5.53
2019-01-14T02:29:59.661Z,5.54
2019-01-14T02:32:27.433Z,5.56
2019-01-14T02:34:55.041Z,5.63
2019-01-14T02:37:25.924Z,5.62
2019-01-14T02:39:53.538Z,5.67
2019-01-14T02:42:21.130Z,5.60
2019-01-14T02:44:49.093Z,5.58
2019-01-14T02:47:16.825Z,5.62
2019-01-14T02:49:44.990Z,5.70
2019-01-14T02:52:13.032Z,5.66
2019-01-14T02:54:40.669Z,5.77
2019-01-14T02:57:08.364Z,5.83
2019-01-14T02:59:36.251Z,5.88
2019-01-14T03:02:04.422Z,5.87
2019-01-14T03:04:32.081Z,5.84
2019-01-14T03:07:00.149Z,5.79
2019-01-14T03:09:28.120Z,5.72
2019-01-14T03:11:55.738Z,5.65
2019-01-14T03:14:26.690Z,5.66
2019-01-14T03:16:54.329Z,5.63
2019-01-14T03:19:21.903Z,5.55
2019-01-14T03:21:49.841Z,5.55
2019-01-14T03:24:18.098Z,5.54
2019-01-14T03:26:45.789Z,5.57
2019-01-14T03:29:13.702Z,5.55
2019-01-14T03:31:41.267Z,5.53
2019-01-14T03:34:09.113Z,5.54
2019-01-14T03:36:36.670Z,5.55
2019-01-14T03:39:06.469Z,5.45
2019-01-14T03:41:34.339Z,5.41
2019-01-14T03:44:02.575Z,5.54
2019-01-14T03:46:30.166Z,5.50
2019-01-14T03:48:57.934Z,5.47
2019-01-14T03:51:25.541Z,5.37
2019-01-14T03:53:53.226Z,5.42
2019-01-14T03:56:23.092Z,5.40
2019-01-14T03:58:51.578Z,5.47
2019-01-14T04:01:19.920Z,5.40
2019-01-14T04:03:49.701Z,5.37
2019-01-14T04:06:19.594Z,5.39
2019-01-14T04:08:47.396Z,5.34
2019-01-14T04:11:15.130Z,5.37
2019-01-14T04:13:42.809Z,5.29
2019-01-14T04:16:11.603Z,5.24
2019-01-14T04:18:40.044Z,5.29
2019-01-14T04:21:08.613Z,5.31
2019-01-14T04:23:36.918Z,5.31
2019-01-14T04:26:04.958Z,5.29
2019-01-14T04:28:32.957Z,5.22
2019-01-14T04:31:00.608Z,5.17
2019-01-14T04:33:28.384Z,5.29
2019-01-14T04:35:55.994Z,5.24
2019-01-14T04:38:23.938Z,5.25
2019-01-14T04:40:51.510Z,5.25
2019-01-14T04:43:19.324Z,5.36
2019-01-14T04:45:47.155Z,5.38
2019-01-14T04:48:14.773Z,5.38
2019-01-14T04:50:43.326Z,5.31
2019-01-14T04:53:11.347Z,5.26
2019-01-14T04:55:39.753Z,5.32
2019-01-14T04:58:08.101Z,5.34
2019-01-14T05:00:35.800Z,5.25
2019-01-14T05:03:03.606Z,5.25
2019-01-14T05:05:31.510Z,5.30
2019-01-14T05:07:59.107Z,5.33
2019-01-14T05:10:51.239Z,5.31
2019-01-14T05:13:20.545Z,5.18
2019-01-14T05:15:49.682Z,5.25
2019-01-14T05:18:17.713Z,5.33
2019-01-14T05:20:45.727Z,5.29
2019-01-14T05:23:13.706Z,5.28
2019-01-14T05:25:41.655Z,5.31
2019-01-14T05:28:10.631Z,5.40
2019-01-14T05:30:38.575Z,5.47
2019-01-14T05:33:06.287Z,5.51
2019-01-14T05:35:34.125Z,5.59
2019-01-14T05:38:01.761Z,5.71
2019-01-14T05:40:29.389Z,5.76
2019-01-14T05:42:57.059Z,5.78
2019-01-14T05:45:24.678Z,5.32
2019-01-14T05:47:52.998Z,5.89
2019-01-14T05:50:21.058Z,5.93
2019-01-14T05:52:49.240Z,5.95
2019-01-14T05:55:17.567Z,5.96
2019-01-14T05:57:45.123Z,6.03
2019-01-14T06:00:24.134Z,6.08
2019-01-14T06:02:52.325Z,6.04
2019-01-14T06:05:20.071Z,6.07
2019-01-14T06:07:47.925Z,6.08
2019-01-14T06:10:16.146Z,6.09
2019-01-14T06:12:43.914Z,6.01
2019-01-14T06:15:15.255Z,5.89
2019-01-14T06:17:43.512Z,5.86
2019-01-14T06:20:12.594Z,5.85
2019-01-14T06:22:40.671Z,5.77
2019-01-14T06:25:09.579Z,5.25
2019-01-14T06:27:37.702Z,5.85
2019-01-14T06:30:12.482Z,5.81
2019-01-14T06:32:40.340Z,5.75
2019-01-14T06:35:08.472Z,5.64
2019-01-14T06:37:36.435Z,5.42
2019-01-14T06:40:06.467Z,5.36
2019-01-14T06:42:34.286Z,5.34
2019-01-14T06:45:06.668Z,5.26
2019-01-14T06:47:34.767Z,5.21
2019-01-14T06:50:04.068Z,5.25
2019-01-14T06:52:32.124Z,5.25
2019-01-14T06:55:00.738Z,5.31
2019-01-14T06:57:29.363Z,5.33
2019-01-14T06:59:57.482Z,5.35
2019-01-14T07:02:25.806Z,5.29
2019-01-14T07:04:53.479Z,5.25
2019-01-14T07:07:21.172Z,5.12
2019-01-14T07:09:49.385Z,5.16
2019-01-14T07:12:17.134Z,5.17
2019-01-14T07:14:45.734Z,5.19
2019-01-14T07:17:13.692Z,5.26
2019-01-14T07:19:43.319Z,5.38
2019-01-14T07:22:12.244Z,5.49
2019-01-14T07:24:41.023Z,5.60
2019-01-14T07:27:08.793Z,5.64
2019-01-14T07:29:36.428Z,5.72
2019-01-14T07:32:04.752Z,5.79
2019-01-14T07:34:32.888Z,5.80
2019-01-14T07:37:00.609Z,5.85
2019-01-14T07:39:28.588Z,5.87
2019-01-14T07:41:56.334Z,5.89
2019-01-14T07:44:24.017Z,5.91
2019-01-14T07:46:51.666Z,5.94
2019-01-14T07:49:20.417Z,5.96
2019-01-14T07:51:49.359Z,5.92
2019-01-14T07:54:17.140Z,5.91
2019-01-14T07:56:45.001Z,5.89
2019-01-14T07:59:12.771Z,5.90
2019-01-14T08:01:40.610Z,5.94
2019-01-14T08:04:08.279Z,6.02
2019-01-14T08:06:36.310Z,6.02
2019-01-14T08:09:06.959Z,6.04
2019-01-14T08:11:34.622Z,6.03
2019-01-14T08:14:04.243Z,5.55
2019-01-14T08:16:32.074Z,6.12
2019-01-14T08:18:59.849Z,6.16
2019-01-14T08:21:27.550Z,6.06
2019-01-14T08:23:55.279Z,5.98
2019-01-14T08:26:23.045Z,6.02
2019-01-14T08:28:50.769Z,6.05
2019-01-14T08:31:18.822Z,6.17
2019-01-14T08:33:46.470Z,6.17
2019-01-14T08:36:14.608Z,6.32
2019-01-14T08:38:42.391Z,6.45
2019-01-14T08:41:12.716Z,6.37
2019-01-14T08:43:41.230Z,6.46
2019-01-14T08:46:09.839Z,6.45
2019-01-14T08:48:37.541Z,6.45
2019-01-14T08:51:06.932Z,6.44
2019-01-14T08:53:34.701Z,6.48
2019-01-14T08:56:02.768Z,6.50
2019-01-14T08:58:31.557Z,6.34
2019-01-14T09:00:59.541Z,6.36
2019-01-14T09:03:27.340Z,6.43
2019-01-14T09:05:58.007Z,6.61
2019-01-14T09:08:28.755Z,6.50
2019-01-14T09:10:55.382Z,6.50
2019-01-14T09:13:23.321Z,6.53
2019-01-14T09:15:51.469Z,6.55
2019-01-14T09:18:19.216Z,6.31
2019-01-14T09:20:46.899Z,6.28
2019-01-14T09:23:14.782Z,6.46
2019-01-14T09:25:42.511Z,6.46
2019-01-14T09:28:11.524Z,6.11
2019-01-14T09:30:39.166Z,6.61
2019-01-14T09:33:07.122Z,6.66
2019-01-14T09:35:35.347Z,6.77
2019-01-14T09:38:04.074Z,6.77
2019-01-14T09:40:31.650Z,6.79
2019-01-14T09:42:59.965Z,6.79
2019-01-14T09:45:27.900Z,6.93
2019-01-14T09:47:56.077Z,6.90
2019-01-14T09:50:24.584Z,6.90
2019-01-14T09:52:52.364Z,6.78
2019-01-14T09:55:20.192Z,6.88
2019-01-14T09:57:48.026Z,6.88
2019-01-14T10:00:15.907Z,6.84
2019-01-14T10:02:45.260Z,6.78
2019-01-14T10:05:14.289Z,6.78
2019-01-14T10:07:42.822Z,6.83
2019-01-14T10:10:12.631Z,6.78
2019-01-14T10:12:40.801Z,6.79
2019-01-14T10:15:11.459Z,6.79
2019-01-14T10:17:40.214Z,6.83
2019-01-14T10:20:08.972Z,6.79
2019-01-14T10:22:37.423Z,6.69
2019-01-14T10:25:05.945Z,6.69
2019-01-14T10:27:33.856Z,6.30
2019-01-14T10:30:04.943Z,5.56
2019-01-14T10:32:32.741Z,5.14
2019-01-14T10:35:00.530Z,4.97
2019-01-14T10:37:28.598Z,4.62
2019-01-14T10:39:59.315Z,4.67
2019-01-14T10:42:26.961Z,4.59
2019-01-14T10:44:54.902Z,4.63
2019-01-14T10:47:22.756Z,4.56
2019-01-14T10:49:51.492Z,4.60
2019-01-14T10:52:19.296Z,4.63
2019-01-14T10:54:46.947Z,4.57
2019-01-14T10:57:14.844Z,4.46
2019-01-14T10:59:42.543Z,4.75
2019-01-14T11:02:10.208Z,4.92
2019-01-14T11:04:38.308Z,5.18
2019-01-14T11:07:06.052Z,5.24
2019-01-14T11:09:34.181Z,5.24
2019-01-14T11:12:05.574Z,5.15
2019-01-14T11:14:34.217Z,5.30
2019-01-14T11:17:01.976Z,5.41
2019-01-14T11:19:31.310Z,5.52
2019-01-14T11:21:59.626Z,5.71
2019-01-14T11:24:50.286Z,5.93
2019-01-14T11:27:19.729Z,6.09
2019-01-14T11:29:54.403Z,5.96
2019-01-14T11:32:23.143Z,5.95
2019-01-14T11:34:51.571Z,5.66
2019-01-14T11:37:23.455Z,5.60
2019-01-14T11:39:51.595Z,5.61
2019-01-14T11:42:19.252Z,5.56
2019-01-14T11:44:47.233Z,5.60
2019-01-14T11:47:15.010Z,5.63
2019-01-14T11:49:43.266Z,5.63
2019-01-14T11:52:11.445Z,5.63
2019-01-14T11:54:39.106Z,5.74
2019-01-14T11:57:07.877Z,5.68
2019-01-14T11:59:36.186Z,5.80
2019-01-14T12:02:04.158Z,5.73
2019-01-14T12:04:31.910Z,5.75
2019-01-14T12:06:59.874Z,5.62
2019-01-14T12:09:28.696Z,5.72
2019-01-14T12:11:56.360Z,5.69
2019-01-14T12:14:24.851Z,5.58
2019-01-14T12:16:52.498Z,5.56
2019-01-14T12:19:21.413Z,5.43
2019-01-14T12:21:50.525Z,5.26
2019-01-14T12:24:18.417Z,5.32
2019-01-14T12:26:46.243Z,5.26
2019-01-14T12:29:15.456Z,5.05
2019-01-14T12:31:43.260Z,4.96
2019-01-14T12:34:10.845Z,4.87
2019-01-14T12:36:39.172Z,4.87
2019-01-14T12:39:08.651Z,4.87
2019-01-14T12:41:36.371Z,4.92
2019-01-14T12:44:05.039Z,4.77
2019-01-14T12:46:32.702Z,4.68
2019-01-14T12:49:00.644Z,4.74
2019-01-14T12:51:33.327Z,4.83
2019-01-14T12:54:05.612Z,4.88
2019-01-14T12:56:37.771Z,5.01
2019-01-14T12:59:05.887Z,5.12
2019-01-14T13:01:34.213Z,5.36
2019-01-14T13:04:04.318Z,5.28
2019-01-14T13:06:36.521Z,5.40
2019-01-14T13:09:08.713Z,5.45
2019-01-14T13:11:37.110Z,5.38
2019-01-14T13:14:05.815Z,5.58
2019-01-14T13:16:33.549Z,5.68
2019-01-14T13:19:02.225Z,5.84
2019-01-14T13:21:30.119Z,5.80
2019-01-14T13:23:58.701Z,5.85
2019-01-14T13:26:27.134Z,5.88
2019-01-14T13:28:54.925Z,5.96
2019-01-14T13:31:22.714Z,5.81
2019-01-14T13:33:50.906Z,5.81
2019-01-14T13:36:19.047Z,5.80
2019-01-14T13:38:47.241Z,5.86
2019-01-14T13:41:15.553Z,5.88
2019-01-14T13:43:44.216Z,5.72
2019-01-14T13:46:15.530Z,5.70
2019-01-14T13:48:43.324Z,5.65
2019-01-14T13:51:12.193Z,5.55
2019-01-14T13:53:40.370Z,5.63
2019-01-14T13:56:08.145Z,5.60
2019-01-14T13:58:35.913Z,5.74
2019-01-14T14:01:04.528Z,5.69
2019-01-14T14:03:32.287Z,5.56
2019-01-14T14:06:00.105Z,5.42
2019-01-14T14:08:28.313Z,5.34
2019-01-14T14:10:56.464Z,5.32
2019-01-14T14:13:24.143Z,5.26
2019-01-14T14:15:52.353Z,5.21
2019-01-14T14:18:20.234Z,5.17
2019-01-14T14:20:48.191Z,5.08
2019-01-14T14:23:16.926Z,4.82
2019-01-14T14:25:44.965Z,4.74
2019-01-14T14:28:15.771Z,4.78
2019-01-14T14:30:44.149Z,4.82
2019-01-14T14:33:14.227Z,4.77
2019-01-14T14:35:42.391Z,4.82
2019-01-14T14:38:10.942Z,4.74
2019-01-14T14:40:39.170Z,4.68
2019-01-14T14:43:11.765Z,4.64
2019-01-14T14:45:40.034Z,4.65
2019-01-14T14:48:11.634Z,4.70
2019-01-14T14:50:40.045Z,4.67
2019-01-14T14:53:08.346Z,4.71
2019-01-14T14:55:37.071Z,4.73
2019-01-14T14:58:07.381Z,4.84
2019-01-14T15:00:36.136Z,4.79
2019-01-14T15:03:05.408Z,4.70
2019-01-14T15:05:36.480Z,4.63
2019-01-14T15:08:05.389Z,4.51
2019-01-14T15:10:33.978Z,4.38
2019-01-14T15:13:05.100Z,4.20
2019-01-14T15:15:33.736Z,3.83
2019-01-14T15:18:02.886Z,3.52
2019-01-14T15:20:31.340Z,3.38
2019-01-14T15:22:59.319Z,3.31
2019-01-14T15:25:30.235Z,3.23
2019-01-14T15:27:58.613Z,3.21
2019-01-14T15:30:31.752Z,3.12
2019-01-14T15:33:00.076Z,3.13
2019-01-14T15:35:29.754Z,3.14
2019-01-14T15:37:58.211Z,2.90
2019-01-14T15:40:28.210Z,3.17
2019-01-14T15:42:56.604Z,3.16
2019-01-14T15:45:29.177Z,3.18
2019-01-14T15:47:57.527Z,3.03
2019-01-14T15:50:26.945Z,3.16
2019-01-14T15:52:56.541Z,3.19
2019-01-14T15:55:29.497Z,3.27
2019-01-14T15:57:59.458Z,3.42
2019-01-14T16:00:28.995Z,3.53
2019-01-14T16:03:01.482Z,3.55
2019-01-14T16:05:30.399Z,3.65
2019-01-14T16:08:00.238Z,3.50
2019-01-14T16:10:30.887Z,3.42
2019-01-14T16:13:00.112Z,3.41
2019-01-14T16:15:28.928Z,3.40
2019-01-14T16:18:01.852Z,3.39
2019-01-14T16:20:30.249Z,3.42
2019-01-14T16:22:59.601Z,3.40
2019-01-14T16:25:28.263Z,3.43
2019-01-14T16:28:03.283Z,3.40
2019-01-14T16:30:31.738Z,3.39
2019-01-14T16:33:00.715Z,3.40
2019-01-14T16:35:29.380Z,3.31
2019-01-14T16:37:58.234Z,3.27
2019-01-14T16:40:28.831Z,3.22
2019-01-14T16:42:57.918Z,2.72
2019-01-14T16:45:30.356Z,3.22
2019-01-14T16:47:59.059Z,3.21
2019-01-14T16:50:27.894Z,3.19
2019-01-14T16:52:58.757Z,3.18
2019-01-14T16:55:49.314Z,3.25
2019-01-14T16:58:18.116Z,3.20
2019-01-14T17:00:46.015Z,3.15
2019-01-14T17:03:19.189Z,3.11
2019-01-14T17:05:49.242Z,3.12
2019-01-14T17:08:19.795Z,3.08
2019-01-14T17:10:49.853Z,3.08
2019-01-14T17:13:19.498Z,3.06
2019-01-14T17:15:49.931Z,2.98
2019-01-14T17:18:19.164Z,2.94
2019-01-14T17:20:59.225Z,2.95
2019-01-14T17:23:33.237Z,2.95
2019-01-14T17:26:06.662Z,2.85
2019-01-14T17:28:41.532Z,2.77
2019-01-14T17:31:11.918Z,2.69
2019-01-14T17:33:45.680Z,2.70
2019-01-14T17:36:20.181Z,2.67
2019-01-14T17:38:51.289Z,2.74
2019-01-14T17:41:26.348Z,2.74
2019-01-14T17:43:58.258Z,2.73
2019-01-14T17:46:27.296Z,2.59
2019-01-14T17:48:58.564Z,2.61
2019-01-14T17:51:33.053Z,2.61
2019-01-14T17:54:01.283Z,2.59
2019-01-14T17:56:30.139Z,2.64
2019-01-14T17:59:02.932Z,2.64
2019-01-14T18:01:31.075Z,2.63
2019-01-14T18:04:02.655Z,2.71
2019-01-14T18:06:30.573Z,2.70
2019-01-14T18:08:59.323Z,2.78
2019-01-14T18:11:28.689Z,2.96
2019-01-14T18:13:58.953Z,3.12
2019-01-14T18:16:31.927Z,3.23
2019-01-14T18:19:06.316Z,3.26
2019-01-14T18:21:34.899Z,3.31
2019-01-14T18:24:03.001Z,3.43
2019-01-14T18:26:32.958Z,3.50
2019-01-14T18:29:04.645Z,3.57
2019-01-14T18:31:34.509Z,3.63
2019-01-14T18:34:05.596Z,3.69
2019-01-14T18:36:36.410Z,3.76
2019-01-14T18:39:11.459Z,3.84
2019-01-14T18:41:41.801Z,3.93
2019-01-14T18:44:14.624Z,3.97
2019-01-14T18:46:42.879Z,4.01
2019-01-14T18:49:11.553Z,4.24
2019-01-14T18:51:46.779Z,4.10
2019-01-14T18:54:16.580Z,4.11
2019-01-14T18:56:46.523Z,3.97
2019-01-14T18:59:16.485Z,3.95
2019-01-14T19:01:44.225Z,3.99
2019-01-14T19:04:12.727Z,3.95
2019-01-14T19:06:40.567Z,3.97
2019-01-14T19:09:11.163Z,3.98
2019-01-14T19:11:39.627Z,3.96
2019-01-14T19:14:07.817Z,3.95
2019-01-14T19:16:36.590Z,4.01
2019-01-14T19:19:08.223Z,4.02
2019-01-14T19:21:38.105Z,4.01
2019-01-14T19:24:07.558Z,3.90
2019-01-14T19:26:36.432Z,3.85
2019-01-14T19:29:07.375Z,3.89
2019-01-14T19:31:38.963Z,3.77
2019-01-14T19:34:14.942Z,3.83
2019-01-14T19:36:44.651Z,3.81
2019-01-14T19:39:16.661Z,3.78
2019-01-14T19:41:47.309Z,3.88
2019-01-14T19:44:15.936Z,3.98
2019-01-14T19:46:44.152Z,4.08
2019-01-14T19:49:13.967Z,4.19
2019-01-14T19:51:41.995Z,4.14
2019-01-14T19:54:16.078Z,4.18
2019-01-14T19:56:47.985Z,4.14
2019-01-14T19:59:16.589Z,4.11
2019-01-14T20:01:44.519Z,4.17
2019-01-14T20:04:15.235Z,4.17
2019-01-14T20:06:43.842Z,4.18
2019-01-14T20:09:12.194Z,4.14
2019-01-14T20:11:41.086Z,4.10
2019-01-14T20:14:09.347Z,4.16
2019-01-14T20:16:38.127Z,4.18
2019-01-14T20:19:06.532Z,4.17
2019-01-14T20:21:35.747Z,4.24
2019-01-14T20:24:08.827Z,4.27
2019-01-14T20:26:38.369Z,4.26
2019-01-14T20:29:06.375Z,4.29
2019-01-14T20:31:37.232Z,4.24
2019-01-14T20:34:05.550Z,4.23
2019-01-14T20:36:37.276Z,4.17
2019-01-14T20:39:09.086Z,4.07
2019-01-14T20:41:38.459Z,4.01
2019-01-14T20:44:06.641Z,3.97
2019-01-14T20:46:36.209Z,3.99
2019-01-14T20:49:08.529Z,4.03
2019-01-14T20:51:36.786Z,4.08
2019-01-14T20:54:06.236Z,4.09
2019-01-14T20:56:34.098Z,4.13
2019-01-14T20:59:04.356Z,4.17
2019-01-14T21:01:36.843Z,4.14
2019-01-14T21:04:11.375Z,4.13
2019-01-14T21:06:41.388Z,4.14
2019-01-14T21:09:09.385Z,4.16
2019-01-14T21:11:37.280Z,4.20
2019-01-14T21:14:05.602Z,4.25
2019-01-14T21:16:33.833Z,4.34
2019-01-14T21:19:02.860Z,4.34
2019-01-14T21:21:31.054Z,4.30
2019-01-14T21:23:59.221Z,4.26
2019-01-14T21:26:29.984Z,4.24
2019-01-14T21:29:04.710Z,4.24
2019-01-14T21:31:32.496Z,4.27
2019-01-14T21:34:01.584Z,4.29
2019-01-14T21:36:33.441Z,4.25
2019-01-14T21:39:08.856Z,4.32
2019-01-14T21:41:36.876Z,4.33
2019-01-14T21:44:04.716Z,4.21
2019-01-14T21:46:32.773Z,4.05
2019-01-14T21:49:01.487Z,4.08
2019-01-14T21:51:29.852Z,3.59
2019-01-14T21:53:57.958Z,4.14
2019-01-14T21:56:26.250Z,4.14
2019-01-14T21:58:57.588Z,4.17
2019-01-14T22:01:25.386Z,4.15
2019-01-14T22:03:53.691Z,4.09
2019-01-14T22:06:21.589Z,4.02
2019-01-14T22:08:49.866Z,4.03
2019-01-14T22:11:18.295Z,4.14
2019-01-14T22:13:45.912Z,4.05
2019-01-14T22:16:13.602Z,3.91
2019-01-14T22:18:41.337Z,3.92
2019-01-14T22:21:08.985Z,3.89
2019-01-14T22:23:38.256Z,3.91
2019-01-14T22:26:06.297Z,3.86
2019-01-14T22:28:35.335Z,3.90
2019-01-14T22:31:03.183Z,3.83
2019-01-14T22:33:31.251Z,3.85
2019-01-14T22:36:00.263Z,3.86
2019-01-14T22:38:27.991Z,3.97
2019-01-14T22:40:55.635Z,4.06
2019-01-14T22:43:23.183Z,4.04
2019-01-14T22:45:51.004Z,3.99
2019-01-14T22:48:18.859Z,3.99
2019-01-14T22:50:46.637Z,4.03
2019-01-14T22:53:14.219Z,4.08
2019-01-14T22:55:41.842Z,4.13
2019-01-14T22:58:09.498Z,4.18
2019-01-14T23:01:13.212Z,4.18
2019-01-14T23:03:42.912Z,4.21
2019-01-14T23:06:11.696Z,4.19
2019-01-14T23:08:39.517Z,4.18
2019-01-14T23:11:08.767Z,4.17
2019-01-14T23:13:36.726Z,4.25
2019-01-14T23:16:05.174Z,4.28
2019-01-14T23:18:33.235Z,4.37
2019-01-14T23:21:05.122Z,4.32
2019-01-14T23:23:33.034Z,4.28
2019-01-14T23:26:04.215Z,4.21
2019-01-14T23:28:35.065Z,4.23
2019-01-14T23:31:07.282Z,4.19
2019-01-14T23:33:34.993Z,4.22
2019-01-14T23:36:05.186Z,4.30
2019-01-14T23:38:32.936Z,4.35
2019-01-14T23:41:01.215Z,4.37
2019-01-14T23:43:31.927Z,4.30
2019-01-14T23:45:59.638Z,4.32
2019-01-14T23:48:28.925Z,4.29
2019-01-14T23:50:56.789Z,4.35
2019-01-14T23:53:24.577Z,4.29
2019-01-14T23:55:52.317Z,4.27
2019-01-14T23:58:20.067Z,4.31
